sensor_id;sensor_type;location;lat;lon;timestamp;P1;durP1;ratioP1;P2;durP2;ratioP2
73678;SDS011;61978;52.742;16.962;2023-09-19T00:00:38;6.70;;;3.30;;
73678;SDS011;61978;52.742;16.962;2023-09-19T00:03:03;11.00;;;4.10;;
73678;SDS011;61978;52.742;16.962;2023-09-19T00:05:33;6.20;;;4.00;;
73678;SDS011;61978;52.742;16.962;2023-09-19T00:08:00;5.90;;;4.10;;
73678;SDS011;61978;52.742;16.962;2023-09-19T00:10:30;5.70;;;4.00;;
73678;SDS011;61978;52.742;16.962;2023-09-19T00:13:00;9.20;;;4.30;;
73678;SDS011;61978;52.742;16.962;2023-09-19T00:15:36;10.70;;;4.10;;
73678;SDS011;61978;52.742;16.962;2023-09-19T00:18:03;6.90;;;3.60;;
73678;SDS011;61978;52.742;16.962;2023-09-19T00:20:35;9.80;;;3.70;;
73678;SDS011;61978;52.742;16.962;2023-09-19T00:23:02;9.70;;;3.90;;
73678;SDS011;61978;52.742;16.962;2023-09-19T00:25:31;5.70;;;3.70;;
73678;SDS011;61978;52.742;16.962;2023-09-19T00:27:57;6.50;;;4.00;;
73678;SDS011;61978;52.742;16.962;2023-09-19T00:30:26;7.70;;;3.90;;
73678;SDS011;61978;52.742;16.962;2023-09-19T00:32:53;10.10;;;3.40;;
73678;SDS011;61978;52.742;16.962;2023-09-19T00:35:21;6.30;;;4.10;;
73678;SDS011;61978;52.742;16.962;2023-09-19T00:37:50;10.60;;;4.10;;
73678;SDS011;61978;52.742;16.962;2023-09-19T00:40:17;5.40;;;3.40;;
73678;SDS011;61978;52.742;16.962;2023-09-19T00:42:47;6.60;;;3.60;;
73678;SDS011;61978;52.742;16.962;2023-09-19T00:45:15;9.90;;;4.60;;
73678;SDS011;61978;52.742;16.962;2023-09-19T00:47:42;6.10;;;4.10;;
73678;SDS011;61978;52.742;16.962;2023-09-19T00:50:12;8.50;;;3.90;;
73678;SDS011;61978;52.742;16.962;2023-09-19T00:52:40;6.50;;;3.70;;
73678;SDS011;61978;52.742;16.962;2023-09-19T00:55:08;7.20;;;3.60;;
73678;SDS011;61978;52.742;16.962;2023-09-19T00:57:35;6.10;;;3.40;;
73678;SDS011;61978;52.742;16.962;2023-09-19T01:00:02;9.00;;;3.60;;
73678;SDS011;61978;52.742;16.962;2023-09-19T01:02:32;12.90;;;4.10;;
73678;SDS011;61978;52.742;16.962;2023-09-19T01:04:59;8.60;;;3.70;;
73678;SDS011;61978;52.742;16.962;2023-09-19T01:07:30;8.80;;;3.90;;
73678;SDS011;61978;52.742;16.962;2023-09-19T01:09:57;9.60;;;4.10;;
73678;SDS011;61978;52.742;16.962;2023-09-19T01:12:33;6.20;;;3.80;;
73678;SDS011;61978;52.742;16.962;2023-09-19T01:30:24;5.80;;;3.40;;
73678;SDS011;61978;52.742;16.962;2023-09-19T01:32:54;8.90;;;3.10;;
73678;SDS011;61978;52.742;16.962;2023-09-19T01:35:25;6.00;;;2.90;;
73678;SDS011;61978;52.742;16.962;2023-09-19T01:37:51;8.70;;;3.10;;
73678;SDS011;61978;52.742;16.962;2023-09-19T01:40:20;6.00;;;3.10;;
73678;SDS011;61978;52.742;16.962;2023-09-19T01:47:46;8.30;;;3.10;;
73678;SDS011;61978;52.742;16.962;2023-09-19T01:50:17;4.80;;;3.00;;
73678;SDS011;61978;52.742;16.962;2023-09-19T01:52:49;8.20;;;3.20;;
73678;SDS011;61978;52.742;16.962;2023-09-19T01:55:17;7.50;;;3.20;;
73678;SDS011;61978;52.742;16.962;2023-09-19T01:58:18;7.60;;;3.60;;
73678;SDS011;61978;52.742;16.962;2023-09-19T02:00:36;5.40;;;3.30;;
73678;SDS011;61978;52.742;16.962;2023-09-19T02:03:04;5.70;;;3.40;;
73678;SDS011;61978;52.742;16.962;2023-09-19T02:05:31;8.20;;;3.70;;
73678;SDS011;61978;52.742;16.962;2023-09-19T02:07:59;8.80;;;3.10;;
73678;SDS011;61978;52.742;16.962;2023-09-19T02:10:25;4.50;;;3.80;;
73678;SDS011;61978;52.742;16.962;2023-09-19T02:12:52;5.00;;;3.50;;
73678;SDS011;61978;52.742;16.962;2023-09-19T02:15:18;9.60;;;3.60;;
73678;SDS011;61978;52.742;16.962;2023-09-19T02:17:44;8.40;;;4.10;;
73678;SDS011;61978;52.742;16.962;2023-09-19T02:20:12;7.60;;;4.20;;
73678;SDS011;61978;52.742;16.962;2023-09-19T02:22:41;9.20;;;3.90;;
73678;SDS011;61978;52.742;16.962;2023-09-19T02:25:08;6.80;;;3.50;;
73678;SDS011;61978;52.742;16.962;2023-09-19T02:27:35;5.30;;;3.80;;
73678;SDS011;61978;52.742;16.962;2023-09-19T02:30:04;11.00;;;3.70;;
73678;SDS011;61978;52.742;16.962;2023-09-19T02:32:32;6.90;;;3.70;;
73678;SDS011;61978;52.742;16.962;2023-09-19T02:35:01;6.60;;;3.80;;
73678;SDS011;61978;52.742;16.962;2023-09-19T02:37:31;3.10;;;2.80;;
73678;SDS011;61978;52.742;16.962;2023-09-19T02:39:57;6.30;;;3.00;;
73678;SDS011;61978;52.742;16.962;2023-09-19T02:42:23;5.50;;;3.20;;
73678;SDS011;61978;52.742;16.962;2023-09-19T02:44:49;6.90;;;2.90;;
73678;SDS011;61978;52.742;16.962;2023-09-19T02:47:16;10.30;;;3.40;;
73678;SDS011;61978;52.742;16.962;2023-09-19T02:49:42;3.00;;;2.60;;
73678;SDS011;61978;52.742;16.962;2023-09-19T02:52:09;7.20;;;2.90;;
73678;SDS011;61978;52.742;16.962;2023-09-19T02:54:37;6.70;;;3.00;;
73678;SDS011;61978;52.742;16.962;2023-09-19T02:57:02;4.90;;;2.20;;
73678;SDS011;61978;52.742;16.962;2023-09-19T02:59:33;5.50;;;2.90;;
73678;SDS011;61978;52.742;16.962;2023-09-19T03:02:02;5.00;;;3.10;;
73678;SDS011;61978;52.742;16.962;2023-09-19T03:04:33;5.40;;;3.40;;
73678;SDS011;61978;52.742;16.962;2023-09-19T03:07:00;10.20;;;3.50;;
73678;SDS011;61978;52.742;16.962;2023-09-19T03:09:27;5.10;;;2.70;;
73678;SDS011;61978;52.742;16.962;2023-09-19T03:11:54;6.90;;;3.50;;
73678;SDS011;61978;52.742;16.962;2023-09-19T03:14:21;5.00;;;3.00;;
73678;SDS011;61978;52.742;16.962;2023-09-19T03:16:48;3.10;;;2.70;;
73678;SDS011;61978;52.742;16.962;2023-09-19T03:19:14;5.80;;;3.10;;
73678;SDS011;61978;52.742;16.962;2023-09-19T03:21:41;3.90;;;2.60;;
73678;SDS011;61978;52.742;16.962;2023-09-19T03:24:09;8.20;;;3.50;;
73678;SDS011;61978;52.742;16.962;2023-09-19T03:26:38;5.90;;;3.40;;
73678;SDS011;61978;52.742;16.962;2023-09-19T03:29:04;7.50;;;3.60;;
73678;SDS011;61978;52.742;16.962;2023-09-19T03:31:33;7.70;;;3.00;;
73678;SDS011;61978;52.742;16.962;2023-09-19T03:34:02;5.50;;;3.30;;
73678;SDS011;61978;52.742;16.962;2023-09-19T03:36:30;11.40;;;3.00;;
73678;SDS011;61978;52.742;16.962;2023-09-19T03:38:55;7.10;;;3.10;;
73678;SDS011;61978;52.742;16.962;2023-09-19T03:41:23;6.30;;;3.20;;
73678;SDS011;61978;52.742;16.962;2023-09-19T03:43:49;4.50;;;2.80;;
73678;SDS011;61978;52.742;16.962;2023-09-19T03:46:15;10.50;;;3.20;;
73678;SDS011;61978;52.742;16.962;2023-09-19T03:48:42;5.50;;;2.50;;
73678;SDS011;61978;52.742;16.962;2023-09-19T03:51:09;7.60;;;3.10;;
73678;SDS011;61978;52.742;16.962;2023-09-19T03:53:37;8.10;;;2.70;;
73678;SDS011;61978;52.742;16.962;2023-09-19T03:56:03;4.50;;;2.40;;
73678;SDS011;61978;52.742;16.962;2023-09-19T03:58:31;4.40;;;2.30;;
73678;SDS011;61978;52.742;16.962;2023-09-19T04:00:57;7.80;;;2.80;;
73678;SDS011;61978;52.742;16.962;2023-09-19T04:03:26;3.90;;;2.30;;
73678;SDS011;61978;52.742;16.962;2023-09-19T04:06:00;4.10;;;2.40;;
73678;SDS011;61978;52.742;16.962;2023-09-19T04:08:27;4.90;;;2.50;;
73678;SDS011;61978;52.742;16.962;2023-09-19T04:10:54;6.80;;;2.50;;
73678;SDS011;61978;52.742;16.962;2023-09-19T04:13:20;2.70;;;2.10;;
73678;SDS011;61978;52.742;16.962;2023-09-19T04:15:46;8.10;;;3.20;;
73678;SDS011;61978;52.742;16.962;2023-09-19T04:18:13;9.20;;;2.70;;
73678;SDS011;61978;52.742;16.962;2023-09-19T04:20:39;8.80;;;2.80;;
73678;SDS011;61978;52.742;16.962;2023-09-19T04:23:07;4.70;;;3.10;;
73678;SDS011;61978;52.742;16.962;2023-09-19T04:25:34;6.90;;;3.20;;
73678;SDS011;61978;52.742;16.962;2023-09-19T04:28:00;14.00;;;3.30;;
73678;SDS011;61978;52.742;16.962;2023-09-19T04:30:26;4.00;;;3.00;;
73678;SDS011;61978;52.742;16.962;2023-09-19T04:32:52;6.60;;;3.20;;
73678;SDS011;61978;52.742;16.962;2023-09-19T04:35:18;5.80;;;2.90;;
73678;SDS011;61978;52.742;16.962;2023-09-19T04:37:45;4.30;;;2.90;;
73678;SDS011;61978;52.742;16.962;2023-09-19T04:40:13;6.80;;;3.00;;
73678;SDS011;61978;52.742;16.962;2023-09-19T04:42:45;6.30;;;3.20;;
73678;SDS011;61978;52.742;16.962;2023-09-19T04:45:12;10.60;;;3.60;;
73678;SDS011;61978;52.742;16.962;2023-09-19T04:47:38;7.20;;;3.60;;
73678;SDS011;61978;52.742;16.962;2023-09-19T04:50:05;5.10;;;4.30;;
73678;SDS011;61978;52.742;16.962;2023-09-19T04:55:03;7.40;;;4.00;;
73678;SDS011;61978;52.742;16.962;2023-09-19T04:57:29;8.30;;;3.90;;
73678;SDS011;61978;52.742;16.962;2023-09-19T04:59:57;14.70;;;4.90;;
73678;SDS011;61978;52.742;16.962;2023-09-19T05:02:25;8.30;;;4.50;;
73678;SDS011;61978;52.742;16.962;2023-09-19T05:04:51;9.50;;;5.50;;
73678;SDS011;61978;52.742;16.962;2023-09-19T05:07:19;6.40;;;4.30;;
73678;SDS011;61978;52.742;16.962;2023-09-19T05:09:44;6.90;;;4.60;;
73678;SDS011;61978;52.742;16.962;2023-09-19T05:12:10;7.60;;;4.60;;
73678;SDS011;61978;52.742;16.962;2023-09-19T05:14:36;9.40;;;5.60;;
73678;SDS011;61978;52.742;16.962;2023-09-19T05:17:02;8.50;;;4.80;;
73678;SDS011;61978;52.742;16.962;2023-09-19T05:19:29;11.70;;;5.00;;
73678;SDS011;61978;52.742;16.962;2023-09-19T05:21:55;6.40;;;4.50;;
73678;SDS011;61978;52.742;16.962;2023-09-19T05:24:21;7.60;;;4.30;;
73678;SDS011;61978;52.742;16.962;2023-09-19T05:26:49;9.70;;;4.00;;
73678;SDS011;61978;52.742;16.962;2023-09-19T05:29:15;8.50;;;4.00;;
73678;SDS011;61978;52.742;16.962;2023-09-19T05:31:42;7.10;;;4.10;;
73678;SDS011;61978;52.742;16.962;2023-09-19T05:34:08;5.60;;;3.80;;
73678;SDS011;61978;52.742;16.962;2023-09-19T05:36:35;8.50;;;4.20;;
73678;SDS011;61978;52.742;16.962;2023-09-19T05:39:00;9.10;;;4.20;;
73678;SDS011;61978;52.742;16.962;2023-09-19T05:41:27;8.70;;;4.00;;
73678;SDS011;61978;52.742;16.962;2023-09-19T05:43:52;6.10;;;4.00;;
73678;SDS011;61978;52.742;16.962;2023-09-19T05:46:18;7.40;;;4.20;;
73678;SDS011;61978;52.742;16.962;2023-09-19T05:48:44;10.50;;;4.60;;
73678;SDS011;61978;52.742;16.962;2023-09-19T05:51:16;7.50;;;4.20;;
73678;SDS011;61978;52.742;16.962;2023-09-19T05:53:43;10.80;;;4.10;;
73678;SDS011;61978;52.742;16.962;2023-09-19T05:56:10;6.40;;;4.00;;
73678;SDS011;61978;52.742;16.962;2023-09-19T05:58:36;6.00;;;3.80;;
73678;SDS011;61978;52.742;16.962;2023-09-19T06:01:02;8.10;;;3.20;;
73678;SDS011;61978;52.742;16.962;2023-09-19T06:03:30;6.50;;;3.10;;
73678;SDS011;61978;52.742;16.962;2023-09-19T06:05:56;5.10;;;3.20;;
73678;SDS011;61978;52.742;16.962;2023-09-19T06:08:23;8.50;;;3.40;;
73678;SDS011;61978;52.742;16.962;2023-09-19T06:10:48;7.00;;;3.50;;
73678;SDS011;61978;52.742;16.962;2023-09-19T06:13:18;8.30;;;3.20;;
73678;SDS011;61978;52.742;16.962;2023-09-19T06:15:45;5.30;;;2.80;;
73678;SDS011;61978;52.742;16.962;2023-09-19T06:18:12;4.10;;;2.70;;
73678;SDS011;61978;52.742;16.962;2023-09-19T06:20:46;5.90;;;2.80;;
73678;SDS011;61978;52.742;16.962;2023-09-19T06:23:12;6.90;;;2.70;;
73678;SDS011;61978;52.742;16.962;2023-09-19T06:25:40;7.00;;;3.20;;
73678;SDS011;61978;52.742;16.962;2023-09-19T06:28:06;4.30;;;2.60;;
73678;SDS011;61978;52.742;16.962;2023-09-19T06:30:34;6.20;;;3.10;;
73678;SDS011;61978;52.742;16.962;2023-09-19T06:33:00;5.30;;;2.70;;
73678;SDS011;61978;52.742;16.962;2023-09-19T06:35:28;3.50;;;2.60;;
73678;SDS011;61978;52.742;16.962;2023-09-19T06:37:55;5.90;;;2.90;;
73678;SDS011;61978;52.742;16.962;2023-09-19T06:40:25;4.50;;;2.60;;
73678;SDS011;61978;52.742;16.962;2023-09-19T06:42:52;6.60;;;2.60;;
73678;SDS011;61978;52.742;16.962;2023-09-19T06:45:24;2.90;;;2.50;;
73678;SDS011;61978;52.742;16.962;2023-09-19T06:47:52;6.10;;;2.60;;
73678;SDS011;61978;52.742;16.962;2023-09-19T06:50:19;3.80;;;3.00;;
73678;SDS011;61978;52.742;16.962;2023-09-19T06:52:48;3.00;;;2.60;;
73678;SDS011;61978;52.742;16.962;2023-09-19T06:55:16;7.20;;;3.00;;
73678;SDS011;61978;52.742;16.962;2023-09-19T06:57:42;5.10;;;2.70;;
73678;SDS011;61978;52.742;16.962;2023-09-19T07:00:13;5.00;;;3.00;;
73678;SDS011;61978;52.742;16.962;2023-09-19T07:02:56;5.20;;;3.10;;
73678;SDS011;61978;52.742;16.962;2023-09-19T07:05:22;5.20;;;3.20;;
73678;SDS011;61978;52.742;16.962;2023-09-19T07:07:48;3.80;;;2.90;;
73678;SDS011;61978;52.742;16.962;2023-09-19T07:10:14;4.80;;;2.90;;
73678;SDS011;61978;52.742;16.962;2023-09-19T07:12:41;3.20;;;2.60;;
73678;SDS011;61978;52.742;16.962;2023-09-19T07:15:07;7.20;;;3.00;;
73678;SDS011;61978;52.742;16.962;2023-09-19T07:17:33;3.70;;;2.40;;
73678;SDS011;61978;52.742;16.962;2023-09-19T07:19:59;7.60;;;2.80;;
73678;SDS011;61978;52.742;16.962;2023-09-19T07:22:28;10.00;;;3.20;;
73678;SDS011;61978;52.742;16.962;2023-09-19T07:24:55;5.60;;;3.20;;
73678;SDS011;61978;52.742;16.962;2023-09-19T07:27:21;3.80;;;2.40;;
73678;SDS011;61978;52.742;16.962;2023-09-19T07:29:47;7.20;;;2.80;;
73678;SDS011;61978;52.742;16.962;2023-09-19T07:32:14;7.10;;;3.60;;
73678;SDS011;61978;52.742;16.962;2023-09-19T07:34:42;7.10;;;2.60;;
73678;SDS011;61978;52.742;16.962;2023-09-19T07:37:10;7.10;;;3.10;;
73678;SDS011;61978;52.742;16.962;2023-09-19T07:39:37;6.80;;;2.60;;
73678;SDS011;61978;52.742;16.962;2023-09-19T07:42:06;3.90;;;2.10;;
73678;SDS011;61978;52.742;16.962;2023-09-19T07:44:34;3.60;;;2.50;;
73678;SDS011;61978;52.742;16.962;2023-09-19T07:47:02;3.80;;;2.00;;
73678;SDS011;61978;52.742;16.962;2023-09-19T07:49:29;3.50;;;2.20;;
73678;SDS011;61978;52.742;16.962;2023-09-19T07:51:55;4.30;;;1.80;;
73678;SDS011;61978;52.742;16.962;2023-09-19T07:54:23;3.60;;;1.60;;
73678;SDS011;61978;52.742;16.962;2023-09-19T07:56:49;2.80;;;2.10;;
73678;SDS011;61978;52.742;16.962;2023-09-19T07:59:14;4.60;;;2.10;;
73678;SDS011;61978;52.742;16.962;2023-09-19T08:01:41;4.40;;;1.80;;
73678;SDS011;61978;52.742;16.962;2023-09-19T08:04:10;2.50;;;1.70;;
73678;SDS011;61978;52.742;16.962;2023-09-19T08:06:36;5.50;;;1.40;;
73678;SDS011;61978;52.742;16.962;2023-09-19T08:09:04;5.80;;;1.60;;
73678;SDS011;61978;52.742;16.962;2023-09-19T08:11:34;3.60;;;1.30;;
73678;SDS011;61978;52.742;16.962;2023-09-19T08:14:00;2.10;;;0.90;;
73678;SDS011;61978;52.742;16.962;2023-09-19T08:16:26;4.20;;;1.50;;
73678;SDS011;61978;52.742;16.962;2023-09-19T08:18:51;5.80;;;1.60;;
73678;SDS011;61978;52.742;16.962;2023-09-19T08:21:21;4.90;;;1.50;;
73678;SDS011;61978;52.742;16.962;2023-09-19T08:23:47;5.80;;;1.70;;
73678;SDS011;61978;52.742;16.962;2023-09-19T08:26:14;2.80;;;1.30;;
73678;SDS011;61978;52.742;16.962;2023-09-19T08:28:51;5.50;;;1.20;;
73678;SDS011;61978;52.742;16.962;2023-09-19T08:31:17;3.10;;;1.20;;
73678;SDS011;61978;52.742;16.962;2023-09-19T08:33:45;2.20;;;1.10;;
73678;SDS011;61978;52.742;16.962;2023-09-19T08:36:14;5.80;;;1.30;;
73678;SDS011;61978;52.742;16.962;2023-09-19T08:38:40;2.60;;;1.50;;
73678;SDS011;61978;52.742;16.962;2023-09-19T08:41:07;4.90;;;1.70;;
73678;SDS011;61978;52.742;16.962;2023-09-19T08:43:34;3.00;;;1.30;;
73678;SDS011;61978;52.742;16.962;2023-09-19T08:46:07;4.30;;;1.30;;
73678;SDS011;61978;52.742;16.962;2023-09-19T08:48:36;5.10;;;1.60;;
73678;SDS011;61978;52.742;16.962;2023-09-19T08:51:06;5.70;;;1.10;;
73678;SDS011;61978;52.742;16.962;2023-09-19T08:56:06;3.10;;;1.10;;
73678;SDS011;61978;52.742;16.962;2023-09-19T08:58:34;5.60;;;1.30;;
73678;SDS011;61978;52.742;16.962;2023-09-19T09:01:01;2.80;;;1.10;;
73678;SDS011;61978;52.742;16.962;2023-09-19T09:03:30;4.90;;;1.40;;
73678;SDS011;61978;52.742;16.962;2023-09-19T09:05:57;2.70;;;1.60;;
73678;SDS011;61978;52.742;16.962;2023-09-19T09:08:24;1.80;;;1.20;;
73678;SDS011;61978;52.742;16.962;2023-09-19T09:10:50;4.20;;;1.50;;
73678;SDS011;61978;52.742;16.962;2023-09-19T09:13:17;1.70;;;1.40;;
73678;SDS011;61978;52.742;16.962;2023-09-19T09:15:43;5.20;;;1.60;;
73678;SDS011;61978;52.742;16.962;2023-09-19T09:18:13;4.30;;;1.20;;
73678;SDS011;61978;52.742;16.962;2023-09-19T09:20:39;3.20;;;1.30;;
73678;SDS011;61978;52.742;16.962;2023-09-19T09:23:07;5.50;;;2.10;;
73678;SDS011;61978;52.742;16.962;2023-09-19T09:25:47;2.90;;;1.40;;
73678;SDS011;61978;52.742;16.962;2023-09-19T09:28:13;7.90;;;1.60;;
73678;SDS011;61978;52.742;16.962;2023-09-19T09:30:47;4.80;;;1.70;;
73678;SDS011;61978;52.742;16.962;2023-09-19T09:33:14;4.50;;;1.10;;
73678;SDS011;61978;52.742;16.962;2023-09-19T09:35:54;3.70;;;1.50;;
73678;SDS011;61978;52.742;16.962;2023-09-19T09:38:47;3.30;;;1.10;;
73678;SDS011;61978;52.742;16.962;2023-09-19T09:41:21;3.80;;;1.00;;
73678;SDS011;61978;52.742;16.962;2023-09-19T09:44:21;3.10;;;1.10;;
73678;SDS011;61978;52.742;16.962;2023-09-19T09:46:56;5.60;;;1.40;;
73678;SDS011;61978;52.742;16.962;2023-09-19T09:49:47;2.20;;;0.90;;
73678;SDS011;61978;52.742;16.962;2023-09-19T09:52:19;4.70;;;1.70;;
73678;SDS011;61978;52.742;16.962;2023-09-19T09:54:59;2.60;;;1.10;;
73678;SDS011;61978;52.742;16.962;2023-09-19T09:57:33;2.00;;;1.30;;
73678;SDS011;61978;52.742;16.962;2023-09-19T10:00:01;1.60;;;1.20;;
73678;SDS011;61978;52.742;16.962;2023-09-19T10:02:39;3.70;;;1.30;;
73678;SDS011;61978;52.742;16.962;2023-09-19T10:05:19;3.50;;;1.20;;
73678;SDS011;61978;52.742;16.962;2023-09-19T10:07:46;4.70;;;1.20;;
73678;SDS011;61978;52.742;16.962;2023-09-19T10:10:34;2.50;;;0.90;;
73678;SDS011;61978;52.742;16.962;2023-09-19T10:13:08;4.10;;;1.00;;
73678;SDS011;61978;52.742;16.962;2023-09-19T10:15:38;3.20;;;1.10;;
73678;SDS011;61978;52.742;16.962;2023-09-19T10:18:06;2.10;;;1.00;;
73678;SDS011;61978;52.742;16.962;2023-09-19T10:20:36;1.50;;;0.90;;
73678;SDS011;61978;52.742;16.962;2023-09-19T10:23:09;5.00;;;2.00;;
73678;SDS011;61978;52.742;16.962;2023-09-19T10:25:42;4.50;;;0.90;;
73678;SDS011;61978;52.742;16.962;2023-09-19T10:28:13;5.20;;;1.50;;
73678;SDS011;61978;52.742;16.962;2023-09-19T10:30:41;2.40;;;1.40;;
73678;SDS011;61978;52.742;16.962;2023-09-19T10:33:14;4.00;;;1.50;;
73678;SDS011;61978;52.742;16.962;2023-09-19T10:35:43;4.80;;;1.10;;
73678;SDS011;61978;52.742;16.962;2023-09-19T10:38:10;2.70;;;1.30;;
73678;SDS011;61978;52.742;16.962;2023-09-19T10:40:38;4.00;;;1.30;;
73678;SDS011;61978;52.742;16.962;2023-09-19T10:43:18;1.90;;;1.50;;
73678;SDS011;61978;52.742;16.962;2023-09-19T10:45:45;6.60;;;2.00;;
73678;SDS011;61978;52.742;16.962;2023-09-19T10:48:18;5.80;;;1.20;;
73678;SDS011;61978;52.742;16.962;2023-09-19T10:53:31;1.70;;;0.70;;
73678;SDS011;61978;52.742;16.962;2023-09-19T10:56:06;2.00;;;1.00;;
73678;SDS011;61978;52.742;16.962;2023-09-19T10:58:36;3.90;;;0.90;;
73678;SDS011;61978;52.742;16.962;2023-09-19T11:01:05;2.50;;;1.00;;
73678;SDS011;61978;52.742;16.962;2023-09-19T11:03:39;3.60;;;1.00;;
73678;SDS011;61978;52.742;16.962;2023-09-19T11:06:17;4.10;;;1.00;;
73678;SDS011;61978;52.742;16.962;2023-09-19T11:09:04;2.30;;;1.10;;
73678;SDS011;61978;52.742;16.962;2023-09-19T11:11:39;3.10;;;1.50;;
73678;SDS011;61978;52.742;16.962;2023-09-19T11:22:22;2.80;;;1.20;;
73678;SDS011;61978;52.742;16.962;2023-09-19T11:24:48;2.30;;;1.00;;
73678;SDS011;61978;52.742;16.962;2023-09-19T11:27:17;2.40;;;1.10;;
73678;SDS011;61978;52.742;16.962;2023-09-19T11:29:43;3.00;;;1.60;;
73678;SDS011;61978;52.742;16.962;2023-09-19T11:32:11;5.20;;;1.50;;
73678;SDS011;61978;52.742;16.962;2023-09-19T11:34:41;6.30;;;1.30;;
73678;SDS011;61978;52.742;16.962;2023-09-19T11:39:37;4.80;;;1.70;;
73678;SDS011;61978;52.742;16.962;2023-09-19T11:44:52;3.10;;;1.20;;
73678;SDS011;61978;52.742;16.962;2023-09-19T11:47:21;3.80;;;1.70;;
73678;SDS011;61978;52.742;16.962;2023-09-19T11:49:51;4.90;;;1.50;;
73678;SDS011;61978;52.742;16.962;2023-09-19T11:52:21;3.40;;;1.90;;
73678;SDS011;61978;52.742;16.962;2023-09-19T11:54:56;4.20;;;1.50;;
73678;SDS011;61978;52.742;16.962;2023-09-19T11:57:22;6.20;;;2.00;;
73678;SDS011;61978;52.742;16.962;2023-09-19T11:59:50;8.20;;;1.90;;
73678;SDS011;61978;52.742;16.962;2023-09-19T12:02:27;4.10;;;1.70;;
73678;SDS011;61978;52.742;16.962;2023-09-19T12:05:00;3.20;;;1.60;;
73678;SDS011;61978;52.742;16.962;2023-09-19T12:07:26;3.10;;;1.60;;
73678;SDS011;61978;52.742;16.962;2023-09-19T12:10:02;6.40;;;1.70;;
73678;SDS011;61978;52.742;16.962;2023-09-19T12:12:29;4.00;;;1.40;;
73678;SDS011;61978;52.742;16.962;2023-09-19T12:14:56;3.40;;;1.20;;
73678;SDS011;61978;52.742;16.962;2023-09-19T12:17:46;3.50;;;1.70;;
73678;SDS011;61978;52.742;16.962;2023-09-19T12:20:11;4.50;;;1.70;;
73678;SDS011;61978;52.742;16.962;2023-09-19T12:22:43;6.70;;;1.80;;
73678;SDS011;61978;52.742;16.962;2023-09-19T12:25:09;7.00;;;1.90;;
73678;SDS011;61978;52.742;16.962;2023-09-19T12:27:44;3.40;;;1.70;;
73678;SDS011;61978;52.742;16.962;2023-09-19T12:30:12;3.90;;;1.50;;
73678;SDS011;61978;52.742;16.962;2023-09-19T12:32:43;6.50;;;1.70;;
73678;SDS011;61978;52.742;16.962;2023-09-19T12:35:10;7.50;;;1.80;;
73678;SDS011;61978;52.742;16.962;2023-09-19T12:37:45;5.40;;;1.50;;
73678;SDS011;61978;52.742;16.962;2023-09-19T12:40:19;3.30;;;1.60;;
73678;SDS011;61978;52.742;16.962;2023-09-19T12:42:48;4.80;;;2.60;;
73678;SDS011;61978;52.742;16.962;2023-09-19T12:45:18;6.90;;;2.50;;
73678;SDS011;61978;52.742;16.962;2023-09-19T12:50:33;5.00;;;2.20;;
73678;SDS011;61978;52.742;16.962;2023-09-19T12:52:59;7.20;;;1.80;;
73678;SDS011;61978;52.742;16.962;2023-09-19T12:55:26;4.80;;;2.00;;
73678;SDS011;61978;52.742;16.962;2023-09-19T12:58:01;5.70;;;2.00;;
73678;SDS011;61978;52.742;16.962;2023-09-19T13:00:31;4.60;;;2.40;;
73678;SDS011;61978;52.742;16.962;2023-09-19T13:05:52;3.20;;;2.10;;
73678;SDS011;61978;52.742;16.962;2023-09-19T13:08:28;7.20;;;2.50;;
73678;SDS011;61978;52.742;16.962;2023-09-19T13:11:01;10.50;;;2.30;;
73678;SDS011;61978;52.742;16.962;2023-09-19T13:13:32;9.10;;;2.10;;
73678;SDS011;61978;52.742;16.962;2023-09-19T13:16:03;6.10;;;2.50;;
73678;SDS011;61978;52.742;16.962;2023-09-19T13:18:48;9.10;;;2.40;;
73678;SDS011;61978;52.742;16.962;2023-09-19T13:21:17;5.90;;;2.10;;
73678;SDS011;61978;52.742;16.962;2023-09-19T13:23:53;7.40;;;2.10;;
73678;SDS011;61978;52.742;16.962;2023-09-19T13:26:25;5.80;;;2.40;;
73678;SDS011;61978;52.742;16.962;2023-09-19T13:28:51;5.60;;;2.40;;
73678;SDS011;61978;52.742;16.962;2023-09-19T13:31:18;6.40;;;3.20;;
73678;SDS011;61978;52.742;16.962;2023-09-19T13:33:45;4.10;;;2.30;;
73678;SDS011;61978;52.742;16.962;2023-09-19T13:36:11;11.50;;;2.20;;
73678;SDS011;61978;52.742;16.962;2023-09-19T13:38:39;7.10;;;2.20;;
73678;SDS011;61978;52.742;16.962;2023-09-19T13:41:12;5.50;;;2.20;;
73678;SDS011;61978;52.742;16.962;2023-09-19T13:43:39;6.60;;;2.50;;
73678;SDS011;61978;52.742;16.962;2023-09-19T13:46:06;5.20;;;1.90;;
73678;SDS011;61978;52.742;16.962;2023-09-19T13:48:33;4.30;;;2.10;;
73678;SDS011;61978;52.742;16.962;2023-09-19T13:51:04;4.50;;;2.20;;
73678;SDS011;61978;52.742;16.962;2023-09-19T13:53:30;4.40;;;2.20;;
73678;SDS011;61978;52.742;16.962;2023-09-19T13:56:01;5.00;;;2.20;;
73678;SDS011;61978;52.742;16.962;2023-09-19T13:58:30;8.70;;;2.20;;
73678;SDS011;61978;52.742;16.962;2023-09-19T14:00:59;4.30;;;2.40;;
73678;SDS011;61978;52.742;16.962;2023-09-19T14:03:29;10.10;;;3.00;;
73678;SDS011;61978;52.742;16.962;2023-09-19T14:05:57;5.70;;;2.50;;
73678;SDS011;61978;52.742;16.962;2023-09-19T14:08:25;6.90;;;2.50;;
73678;SDS011;61978;52.742;16.962;2023-09-19T14:10:51;5.20;;;2.40;;
73678;SDS011;61978;52.742;16.962;2023-09-19T14:13:20;4.30;;;2.00;;
73678;SDS011;61978;52.742;16.962;2023-09-19T14:15:46;3.60;;;1.90;;
73678;SDS011;61978;52.742;16.962;2023-09-19T14:18:15;5.20;;;2.40;;
73678;SDS011;61978;52.742;16.962;2023-09-19T14:20:42;3.10;;;2.20;;
73678;SDS011;61978;52.742;16.962;2023-09-19T14:23:09;7.40;;;2.40;;
73678;SDS011;61978;52.742;16.962;2023-09-19T14:25:36;4.40;;;2.60;;
73678;SDS011;61978;52.742;16.962;2023-09-19T14:28:07;5.10;;;2.60;;
73678;SDS011;61978;52.742;16.962;2023-09-19T14:30:39;5.90;;;2.70;;
73678;SDS011;61978;52.742;16.962;2023-09-19T14:33:05;4.70;;;2.60;;
73678;SDS011;61978;52.742;16.962;2023-09-19T14:35:32;5.20;;;2.70;;
73678;SDS011;61978;52.742;16.962;2023-09-19T14:37:59;7.80;;;2.10;;
73678;SDS011;61978;52.742;16.962;2023-09-19T14:40:25;7.80;;;3.00;;
73678;SDS011;61978;52.742;16.962;2023-09-19T14:42:52;8.40;;;2.40;;
73678;SDS011;61978;52.742;16.962;2023-09-19T14:45:18;4.80;;;2.30;;
73678;SDS011;61978;52.742;16.962;2023-09-19T14:47:51;5.70;;;2.40;;
73678;SDS011;61978;52.742;16.962;2023-09-19T14:50:20;5.60;;;2.20;;
73678;SDS011;61978;52.742;16.962;2023-09-19T14:52:47;3.10;;;2.10;;
73678;SDS011;61978;52.742;16.962;2023-09-19T14:55:19;5.50;;;2.60;;
73678;SDS011;61978;52.742;16.962;2023-09-19T14:57:48;3.10;;;2.60;;
73678;SDS011;61978;52.742;16.962;2023-09-19T15:00:14;4.20;;;2.40;;
73678;SDS011;61978;52.742;16.962;2023-09-19T15:02:41;4.30;;;2.30;;
73678;SDS011;61978;52.742;16.962;2023-09-19T15:05:07;5.00;;;2.60;;
73678;SDS011;61978;52.742;16.962;2023-09-19T15:07:35;4.90;;;2.40;;
73678;SDS011;61978;52.742;16.962;2023-09-19T15:10:02;5.10;;;2.20;;
73678;SDS011;61978;52.742;16.962;2023-09-19T15:12:29;7.40;;;2.20;;
73678;SDS011;61978;52.742;16.962;2023-09-19T15:14:56;3.50;;;1.90;;
73678;SDS011;61978;52.742;16.962;2023-09-19T15:17:23;5.10;;;2.20;;
73678;SDS011;61978;52.742;16.962;2023-09-19T15:19:51;6.50;;;2.20;;
73678;SDS011;61978;52.742;16.962;2023-09-19T15:22:17;5.10;;;2.50;;
73678;SDS011;61978;52.742;16.962;2023-09-19T15:24:43;8.40;;;2.40;;
73678;SDS011;61978;52.742;16.962;2023-09-19T15:27:09;5.90;;;3.20;;
73678;SDS011;61978;52.742;16.962;2023-09-19T15:29:35;4.80;;;1.90;;